Albany, Oregon
Current Conditions -  °F | °C
As of 4:15 AM on Tuesday 27 Jan 2015 (Local Time) from KCVO Reporting Station
Overcast Overcast  
Wind Chill: 45°   Ceiling: 200
Heat Index: 45°   Visibility: 0.5mi
Dew Point: 39°   Wind: 0mph
Humidity: 81%   Direction: NA
Pressure: 30.04"   Gusts: NA
Location:  44.64°N, 123.1°W
Report Text: KCVO 271215Z AUTO 00000KT 1/2SM OVC002 07/04 A3004 RMK AO1
Loading
Personal Weather Stations






























Interactive Weather Map New forecast layout! Learn more

10-Day Weather Forecast

Advertisements
Track Severe Weather on mobile